RJTJ(METAR)
07/27 18:00
METAR RJTJ 270900Z 05004KT 350V090 9999 FEW030 BKN040 29/22 Q0997
RMK 1CU030 5CU040 A2944=
戻る
トップページへ戻る
IMOC Co,.Ltd.